sensor_id;sensor_type;location;lat;lon;timestamp;P1;durP1;ratioP1;P2;durP2;ratioP2
13443;SDS011;6794;59.218;18.218;2024-01-15T00:00:00;1.70;;;0.90;;
13443;SDS011;6794;59.218;18.218;2024-01-15T00:02:28;1.10;;;0.60;;
13443;SDS011;6794;59.218;18.218;2024-01-15T00:04:54;0.60;;;0.60;;
13443;SDS011;6794;59.218;18.218;2024-01-15T00:07:20;1.97;;;0.63;;
13443;SDS011;6794;59.218;18.218;2024-01-15T00:09:46;1.07;;;0.57;;
13443;SDS011;6794;59.218;18.218;2024-01-15T00:12:12;2.63;;;0.83;;
13443;SDS011;6794;59.218;18.218;2024-01-15T00:14:38;2.83;;;0.93;;
13443;SDS011;6794;59.218;18.218;2024-01-15T00:17:04;1.00;;;0.60;;
13443;SDS011;6794;59.218;18.218;2024-01-15T00:19:30;1.00;;;0.60;;
13443;SDS011;6794;59.218;18.218;2024-01-15T00:21:57;0.47;;;0.40;;
13443;SDS011;6794;59.218;18.218;2024-01-15T00:24:24;0.93;;;0.60;;
13443;SDS011;6794;59.218;18.218;2024-01-15T00:26:50;0.70;;;0.40;;
13443;SDS011;6794;59.218;18.218;2024-01-15T00:29:16;0.77;;;0.30;;
13443;SDS011;6794;59.218;18.218;2024-01-15T00:31:42;1.00;;;0.60;;
13443;SDS011;6794;59.218;18.218;2024-01-15T00:34:08;0.87;;;0.40;;
13443;SDS011;6794;59.218;18.218;2024-01-15T00:36:34;0.60;;;0.40;;
13443;SDS011;6794;59.218;18.218;2024-01-15T00:39:00;1.97;;;0.70;;
13443;SDS011;6794;59.218;18.218;2024-01-15T00:41:26;0.83;;;0.57;;
13443;SDS011;6794;59.218;18.218;2024-01-15T00:43:53;3.30;;;0.90;;
13443;SDS011;6794;59.218;18.218;2024-01-15T00:46:19;2.23;;;0.50;;
13443;SDS011;6794;59.218;18.218;2024-01-15T00:48:45;2.07;;;0.50;;
13443;SDS011;6794;59.218;18.218;2024-01-15T00:51:12;1.80;;;0.50;;
13443;SDS011;6794;59.218;18.218;2024-01-15T00:53:38;0.50;;;0.33;;
13443;SDS011;6794;59.218;18.218;2024-01-15T00:56:04;1.53;;;0.50;;
13443;SDS011;6794;59.218;18.218;2024-01-15T00:58:30;0.80;;;0.40;;
13443;SDS011;6794;59.218;18.218;2024-01-15T01:00:56;1.40;;;0.60;;
13443;SDS011;6794;59.218;18.218;2024-01-15T01:03:22;2.43;;;0.63;;
13443;SDS011;6794;59.218;18.218;2024-01-15T01:05:48;0.73;;;0.37;;
13443;SDS011;6794;59.218;18.218;2024-01-15T01:08:15;1.33;;;0.33;;
13443;SDS011;6794;59.218;18.218;2024-01-15T01:10:41;1.85;;;0.75;;
13443;SDS011;6794;59.218;18.218;2024-01-15T01:13:09;0.63;;;0.53;;
13443;SDS011;6794;59.218;18.218;2024-01-15T01:15:36;2.33;;;0.60;;
13443;SDS011;6794;59.218;18.218;2024-01-15T01:18:02;1.50;;;0.80;;
13443;SDS011;6794;59.218;18.218;2024-01-15T01:20:28;2.30;;;0.50;;
13443;SDS011;6794;59.218;18.218;2024-01-15T01:22:55;1.07;;;0.60;;
13443;SDS011;6794;59.218;18.218;2024-01-15T01:25:21;0.37;;;0.23;;
13443;SDS011;6794;59.218;18.218;2024-01-15T01:27:47;0.60;;;0.50;;
13443;SDS011;6794;59.218;18.218;2024-01-15T01:30:13;0.70;;;0.60;;
13443;SDS011;6794;59.218;18.218;2024-01-15T01:32:39;2.07;;;0.70;;
13443;SDS011;6794;59.218;18.218;2024-01-15T01:35:05;1.00;;;0.40;;
13443;SDS011;6794;59.218;18.218;2024-01-15T01:37:31;1.00;;;0.40;;
13443;SDS011;6794;59.218;18.218;2024-01-15T01:39:59;0.30;;;0.30;;
13443;SDS011;6794;59.218;18.218;2024-01-15T01:42:25;0.93;;;0.63;;
13443;SDS011;6794;59.218;18.218;2024-01-15T01:44:51;1.50;;;0.60;;
13443;SDS011;6794;59.218;18.218;2024-01-15T01:47:17;1.83;;;0.60;;
13443;SDS011;6794;59.218;18.218;2024-01-15T01:49:43;2.07;;;0.50;;
13443;SDS011;6794;59.218;18.218;2024-01-15T01:52:09;1.17;;;0.77;;
13443;SDS011;6794;59.218;18.218;2024-01-15T01:54:36;1.23;;;0.60;;
13443;SDS011;6794;59.218;18.218;2024-01-15T01:57:03;1.53;;;0.53;;
13443;SDS011;6794;59.218;18.218;2024-01-15T01:59:29;0.77;;;0.50;;
13443;SDS011;6794;59.218;18.218;2024-01-15T02:01:56;1.17;;;0.33;;
13443;SDS011;6794;59.218;18.218;2024-01-15T02:04:23;0.40;;;0.30;;
13443;SDS011;6794;59.218;18.218;2024-01-15T02:06:50;0.87;;;0.47;;
13443;SDS011;6794;59.218;18.218;2024-01-15T02:09:19;1.50;;;0.53;;
13443;SDS011;6794;59.218;18.218;2024-01-15T02:11:49;1.90;;;0.47;;
13443;SDS011;6794;59.218;18.218;2024-01-15T02:14:15;2.57;;;0.50;;
13443;SDS011;6794;59.218;18.218;2024-01-15T02:16:41;1.53;;;0.50;;
13443;SDS011;6794;59.218;18.218;2024-01-15T02:19:14;1.03;;;0.30;;
13443;SDS011;6794;59.218;18.218;2024-01-15T02:21:40;0.37;;;0.30;;
13443;SDS011;6794;59.218;18.218;2024-01-15T02:24:06;2.90;;;0.70;;
13443;SDS011;6794;59.218;18.218;2024-01-15T02:26:32;2.00;;;0.90;;
13443;SDS011;6794;59.218;18.218;2024-01-15T02:29:00;1.92;;;0.70;;
13443;SDS011;6794;59.218;18.218;2024-01-15T02:31:27;1.27;;;0.80;;
13443;SDS011;6794;59.218;18.218;2024-01-15T02:33:53;3.50;;;1.00;;
13443;SDS011;6794;59.218;18.218;2024-01-15T02:36:19;3.60;;;0.63;;
13443;SDS011;6794;59.218;18.218;2024-01-15T02:38:45;2.80;;;0.50;;
13443;SDS011;6794;59.218;18.218;2024-01-15T02:41:11;3.60;;;0.70;;
13443;SDS011;6794;59.218;18.218;2024-01-15T02:43:39;1.77;;;0.70;;
13443;SDS011;6794;59.218;18.218;2024-01-15T02:46:06;1.13;;;0.60;;
13443;SDS011;6794;59.218;18.218;2024-01-15T02:48:32;1.33;;;0.40;;
13443;SDS011;6794;59.218;18.218;2024-01-15T02:51:00;0.57;;;0.33;;
13443;SDS011;6794;59.218;18.218;2024-01-15T02:53:26;1.57;;;0.80;;
13443;SDS011;6794;59.218;18.218;2024-01-15T02:55:52;0.93;;;0.80;;
13443;SDS011;6794;59.218;18.218;2024-01-15T02:58:18;1.37;;;0.63;;
13443;SDS011;6794;59.218;18.218;2024-01-15T03:00:44;2.53;;;0.77;;
13443;SDS011;6794;59.218;18.218;2024-01-15T03:03:11;1.65;;;0.50;;
13443;SDS011;6794;59.218;18.218;2024-01-15T03:05:37;1.47;;;0.70;;
13443;SDS011;6794;59.218;18.218;2024-01-15T03:08:03;0.40;;;0.40;;
13443;SDS011;6794;59.218;18.218;2024-01-15T03:10:29;0.83;;;0.70;;
13443;SDS011;6794;59.218;18.218;2024-01-15T03:12:55;0.50;;;0.50;;
13443;SDS011;6794;59.218;18.218;2024-01-15T03:15:21;1.50;;;0.63;;
13443;SDS011;6794;59.218;18.218;2024-01-15T03:17:47;1.57;;;0.40;;
13443;SDS011;6794;59.218;18.218;2024-01-15T03:20:13;0.73;;;0.67;;
13443;SDS011;6794;59.218;18.218;2024-01-15T03:22:39;2.23;;;1.03;;
13443;SDS011;6794;59.218;18.218;2024-01-15T03:25:06;0.80;;;0.47;;
13443;SDS011;6794;59.218;18.218;2024-01-15T03:27:32;2.53;;;0.80;;
13443;SDS011;6794;59.218;18.218;2024-01-15T03:29:58;1.20;;;0.50;;
13443;SDS011;6794;59.218;18.218;2024-01-15T03:32:24;1.30;;;0.73;;
13443;SDS011;6794;59.218;18.218;2024-01-15T03:34:50;1.43;;;0.63;;
13443;SDS011;6794;59.218;18.218;2024-01-15T03:37:17;3.90;;;0.63;;
13443;SDS011;6794;59.218;18.218;2024-01-15T03:39:43;0.73;;;0.30;;
13443;SDS011;6794;59.218;18.218;2024-01-15T03:42:09;1.13;;;0.70;;
13443;SDS011;6794;59.218;18.218;2024-01-15T03:44:35;0.80;;;0.60;;
13443;SDS011;6794;59.218;18.218;2024-01-15T03:47:01;0.60;;;0.60;;
13443;SDS011;6794;59.218;18.218;2024-01-15T03:49:27;1.43;;;0.53;;
13443;SDS011;6794;59.218;18.218;2024-01-15T03:51:53;1.80;;;0.50;;
13443;SDS011;6794;59.218;18.218;2024-01-15T03:54:19;0.20;;;0.20;;
13443;SDS011;6794;59.218;18.218;2024-01-15T03:56:45;21.23;;;2.30;;
13443;SDS011;6794;59.218;18.218;2024-01-15T03:59:11;1.53;;;0.40;;
13443;SDS011;6794;59.218;18.218;2024-01-15T04:01:37;0.90;;;0.40;;
13443;SDS011;6794;59.218;18.218;2024-01-15T04:04:03;0.63;;;0.60;;
13443;SDS011;6794;59.218;18.218;2024-01-15T04:06:29;3.50;;;0.70;;
13443;SDS011;6794;59.218;18.218;2024-01-15T04:08:55;2.37;;;0.87;;
13443;SDS011;6794;59.218;18.218;2024-01-15T04:11:21;1.40;;;1.00;;
13443;SDS011;6794;59.218;18.218;2024-01-15T04:13:47;0.50;;;0.40;;
13443;SDS011;6794;59.218;18.218;2024-01-15T04:16:13;0.77;;;0.70;;
13443;SDS011;6794;59.218;18.218;2024-01-15T04:18:39;1.47;;;1.00;;
13443;SDS011;6794;59.218;18.218;2024-01-15T04:21:05;1.90;;;0.60;;
13443;SDS011;6794;59.218;18.218;2024-01-15T04:23:32;0.50;;;0.50;;
13443;SDS011;6794;59.218;18.218;2024-01-15T04:25:58;0.50;;;0.50;;
13443;SDS011;6794;59.218;18.218;2024-01-15T04:28:24;0.65;;;0.65;;
13443;SDS011;6794;59.218;18.218;2024-01-15T04:30:50;0.40;;;0.40;;
13443;SDS011;6794;59.218;18.218;2024-01-15T04:33:16;3.87;;;0.77;;
13443;SDS011;6794;59.218;18.218;2024-01-15T04:35:42;1.63;;;1.20;;
13443;SDS011;6794;59.218;18.218;2024-01-15T04:38:08;1.80;;;0.70;;
13443;SDS011;6794;59.218;18.218;2024-01-15T04:40:34;0.70;;;0.70;;
13443;SDS011;6794;59.218;18.218;2024-01-15T04:43:00;2.90;;;1.20;;
13443;SDS011;6794;59.218;18.218;2024-01-15T04:45:26;7.18;;;1.00;;
13443;SDS011;6794;59.218;18.218;2024-01-15T04:47:54;2.60;;;1.00;;
13443;SDS011;6794;59.218;18.218;2024-01-15T04:50:21;1.00;;;0.90;;
13443;SDS011;6794;59.218;18.218;2024-01-15T04:52:47;0.67;;;0.50;;
13443;SDS011;6794;59.218;18.218;2024-01-15T04:55:13;1.67;;;0.90;;
13443;SDS011;6794;59.218;18.218;2024-01-15T04:57:40;1.87;;;0.90;;
13443;SDS011;6794;59.218;18.218;2024-01-15T05:00:06;0.80;;;0.80;;
13443;SDS011;6794;59.218;18.218;2024-01-15T05:02:32;1.42;;;0.77;;
13443;SDS011;6794;59.218;18.218;2024-01-15T05:04:58;0.90;;;0.90;;
13443;SDS011;6794;59.218;18.218;2024-01-15T05:07:24;0.90;;;0.63;;
13443;SDS011;6794;59.218;18.218;2024-01-15T05:09:50;11.07;;;1.20;;
13443;SDS011;6794;59.218;18.218;2024-01-15T05:12:16;1.70;;;1.13;;
13443;SDS011;6794;59.218;18.218;2024-01-15T05:14:42;2.22;;;0.98;;
13443;SDS011;6794;59.218;18.218;2024-01-15T05:17:08;2.83;;;1.07;;
13443;SDS011;6794;59.218;18.218;2024-01-15T05:19:34;1.20;;;1.10;;
13443;SDS011;6794;59.218;18.218;2024-01-15T05:22:00;1.87;;;0.87;;
13443;SDS011;6794;59.218;18.218;2024-01-15T05:24:26;0.70;;;0.70;;
13443;SDS011;6794;59.218;18.218;2024-01-15T05:26:52;0.73;;;0.73;;
13443;SDS011;6794;59.218;18.218;2024-01-15T05:29:18;1.57;;;1.10;;
13443;SDS011;6794;59.218;18.218;2024-01-15T05:31:44;0.87;;;0.83;;
13443;SDS011;6794;59.218;18.218;2024-01-15T05:34:11;0.90;;;0.90;;
13443;SDS011;6794;59.218;18.218;2024-01-15T05:36:37;10.80;;;1.90;;
13443;SDS011;6794;59.218;18.218;2024-01-15T05:39:03;2.13;;;1.45;;
13443;SDS011;6794;59.218;18.218;2024-01-15T05:41:29;2.42;;;1.25;;
13443;SDS011;6794;59.218;18.218;2024-01-15T05:43:55;1.75;;;1.00;;
13443;SDS011;6794;59.218;18.218;2024-01-15T05:46:21;2.08;;;1.33;;
13443;SDS011;6794;59.218;18.218;2024-01-15T05:48:47;3.60;;;1.50;;
13443;SDS011;6794;59.218;18.218;2024-01-15T05:51:13;1.80;;;1.30;;
13443;SDS011;6794;59.218;18.218;2024-01-15T05:53:39;1.02;;;0.93;;
13443;SDS011;6794;59.218;18.218;2024-01-15T05:56:07;4.40;;;1.48;;
13443;SDS011;6794;59.218;18.218;2024-01-15T05:58:33;1.60;;;1.10;;
13443;SDS011;6794;59.218;18.218;2024-01-15T06:00:59;2.13;;;1.30;;
13443;SDS011;6794;59.218;18.218;2024-01-15T06:03:25;4.50;;;2.40;;
13443;SDS011;6794;59.218;18.218;2024-01-15T06:05:51;3.00;;;1.20;;
13443;SDS011;6794;59.218;18.218;2024-01-15T06:08:18;1.67;;;1.38;;
13443;SDS011;6794;59.218;18.218;2024-01-15T06:10:45;3.95;;;1.65;;
13443;SDS011;6794;59.218;18.218;2024-01-15T06:13:11;1.10;;;1.00;;
13443;SDS011;6794;59.218;18.218;2024-01-15T06:15:38;3.15;;;2.03;;
13443;SDS011;6794;59.218;18.218;2024-01-15T06:18:04;1.30;;;1.20;;
13443;SDS011;6794;59.218;18.218;2024-01-15T06:20:30;2.58;;;1.55;;
13443;SDS011;6794;59.218;18.218;2024-01-15T06:22:56;1.83;;;1.50;;
13443;SDS011;6794;59.218;18.218;2024-01-15T06:25:22;4.90;;;1.70;;
13443;SDS011;6794;59.218;18.218;2024-01-15T06:27:49;2.17;;;1.45;;
13443;SDS011;6794;59.218;18.218;2024-01-15T06:30:15;2.77;;;2.17;;
13443;SDS011;6794;59.218;18.218;2024-01-15T06:32:41;2.92;;;2.08;;
13443;SDS011;6794;59.218;18.218;2024-01-15T06:35:08;1.60;;;1.50;;
13443;SDS011;6794;59.218;18.218;2024-01-15T06:37:35;2.38;;;1.70;;
13443;SDS011;6794;59.218;18.218;2024-01-15T06:40:01;3.20;;;1.77;;
13443;SDS011;6794;59.218;18.218;2024-01-15T06:42:28;2.45;;;2.05;;
13443;SDS011;6794;59.218;18.218;2024-01-15T06:44:54;2.97;;;2.30;;
13443;SDS011;6794;59.218;18.218;2024-01-15T06:47:20;3.35;;;1.85;;
13443;SDS011;6794;59.218;18.218;2024-01-15T06:49:46;3.10;;;1.90;;
13443;SDS011;6794;59.218;18.218;2024-01-15T06:52:12;2.87;;;2.30;;
13443;SDS011;6794;59.218;18.218;2024-01-15T06:54:38;2.10;;;1.63;;
13443;SDS011;6794;59.218;18.218;2024-01-15T06:57:04;3.10;;;2.63;;
13443;SDS011;6794;59.218;18.218;2024-01-15T06:59:31;3.58;;;2.50;;
13443;SDS011;6794;59.218;18.218;2024-01-15T07:01:57;3.80;;;2.10;;
13443;SDS011;6794;59.218;18.218;2024-01-15T07:04:24;2.47;;;2.28;;
13443;SDS011;6794;59.218;18.218;2024-01-15T07:06:50;3.50;;;2.55;;
13443;SDS011;6794;59.218;18.218;2024-01-15T07:09:16;3.00;;;2.00;;
13443;SDS011;6794;59.218;18.218;2024-01-15T07:11:45;2.00;;;1.80;;
13443;SDS011;6794;59.218;18.218;2024-01-15T07:14:11;2.78;;;1.60;;
13443;SDS011;6794;59.218;18.218;2024-01-15T07:16:38;2.47;;;2.28;;
13443;SDS011;6794;59.218;18.218;2024-01-15T07:19:04;4.22;;;2.30;;
13443;SDS011;6794;59.218;18.218;2024-01-15T07:21:30;1.60;;;1.50;;
13443;SDS011;6794;59.218;18.218;2024-01-15T07:23:56;2.00;;;1.63;;
13443;SDS011;6794;59.218;18.218;2024-01-15T07:26:22;1.50;;;1.40;;
13443;SDS011;6794;59.218;18.218;2024-01-15T07:28:48;2.80;;;2.30;;
13443;SDS011;6794;59.218;18.218;2024-01-15T07:31:15;3.37;;;1.70;;
13443;SDS011;6794;59.218;18.218;2024-01-15T07:33:41;4.55;;;1.77;;
13443;SDS011;6794;59.218;18.218;2024-01-15T07:36:07;3.13;;;2.40;;
13443;SDS011;6794;59.218;18.218;2024-01-15T07:38:33;2.42;;;1.70;;
13443;SDS011;6794;59.218;18.218;2024-01-15T07:41:00;3.83;;;1.85;;
13443;SDS011;6794;59.218;18.218;2024-01-15T07:43:27;2.90;;;2.22;;
13443;SDS011;6794;59.218;18.218;2024-01-15T07:45:53;4.00;;;2.70;;
13443;SDS011;6794;59.218;18.218;2024-01-15T07:48:19;2.20;;;2.00;;
13443;SDS011;6794;59.218;18.218;2024-01-15T07:50:45;2.17;;;1.80;;
13443;SDS011;6794;59.218;18.218;2024-01-15T07:53:11;2.20;;;1.58;;
13443;SDS011;6794;59.218;18.218;2024-01-15T07:55:37;3.20;;;1.95;;
13443;SDS011;6794;59.218;18.218;2024-01-15T07:58:03;3.38;;;1.48;;
13443;SDS011;6794;59.218;18.218;2024-01-15T08:00:29;1.50;;;1.40;;
13443;SDS011;6794;59.218;18.218;2024-01-15T08:02:55;2.83;;;1.75;;
13443;SDS011;6794;59.218;18.218;2024-01-15T08:05:21;2.23;;;1.87;;
13443;SDS011;6794;59.218;18.218;2024-01-15T08:07:48;3.53;;;1.48;;
13443;SDS011;6794;59.218;18.218;2024-01-15T08:10:14;3.30;;;1.60;;
13443;SDS011;6794;59.218;18.218;2024-01-15T08:12:40;2.58;;;1.67;;
13443;SDS011;6794;59.218;18.218;2024-01-15T08:15:06;2.17;;;1.60;;
13443;SDS011;6794;59.218;18.218;2024-01-15T08:17:33;1.20;;;1.10;;
13443;SDS011;6794;59.218;18.218;2024-01-15T08:19:59;2.03;;;1.20;;
13443;SDS011;6794;59.218;18.218;2024-01-15T08:22:26;1.45;;;1.00;;
13443;SDS011;6794;59.218;18.218;2024-01-15T08:24:52;1.45;;;1.10;;
13443;SDS011;6794;59.218;18.218;2024-01-15T08:27:20;0.90;;;0.82;;
13443;SDS011;6794;59.218;18.218;2024-01-15T08:29:46;3.37;;;1.67;;
13443;SDS011;6794;59.218;18.218;2024-01-15T08:32:12;2.78;;;1.15;;
13443;SDS011;6794;59.218;18.218;2024-01-15T08:34:40;4.25;;;0.90;;
13443;SDS011;6794;59.218;18.218;2024-01-15T08:37:07;2.53;;;1.02;;
13443;SDS011;6794;59.218;18.218;2024-01-15T08:39:33;2.42;;;1.02;;
13443;SDS011;6794;59.218;18.218;2024-01-15T08:41:59;3.08;;;0.80;;
13443;SDS011;6794;59.218;18.218;2024-01-15T08:44:25;3.58;;;1.63;;
13443;SDS011;6794;59.218;18.218;2024-01-15T08:46:51;1.87;;;0.90;;
13443;SDS011;6794;59.218;18.218;2024-01-15T08:49:17;1.27;;;0.77;;
13443;SDS011;6794;59.218;18.218;2024-01-15T08:51:43;1.40;;;1.10;;
13443;SDS011;6794;59.218;18.218;2024-01-15T08:54:09;0.47;;;0.40;;
13443;SDS011;6794;59.218;18.218;2024-01-15T08:56:35;2.35;;;0.68;;
13443;SDS011;6794;59.218;18.218;2024-01-15T08:59:01;1.50;;;0.98;;
13443;SDS011;6794;59.218;18.218;2024-01-15T09:01:27;0.60;;;0.60;;
13443;SDS011;6794;59.218;18.218;2024-01-15T09:03:54;1.38;;;0.80;;
13443;SDS011;6794;59.218;18.218;2024-01-15T09:06:20;0.65;;;0.65;;
13443;SDS011;6794;59.218;18.218;2024-01-15T09:08:46;0.85;;;0.60;;
13443;SDS011;6794;59.218;18.218;2024-01-15T09:11:12;1.58;;;0.90;;
13443;SDS011;6794;59.218;18.218;2024-01-15T09:13:39;0.40;;;0.40;;
13443;SDS011;6794;59.218;18.218;2024-01-15T09:16:05;1.63;;;0.67;;
13443;SDS011;6794;59.218;18.218;2024-01-15T09:18:31;2.42;;;0.80;;
13443;SDS011;6794;59.218;18.218;2024-01-15T09:20:57;2.88;;;0.80;;
13443;SDS011;6794;59.218;18.218;2024-01-15T09:23:23;1.63;;;1.40;;
13443;SDS011;6794;59.218;18.218;2024-01-15T09:25:49;1.23;;;0.90;;
13443;SDS011;6794;59.218;18.218;2024-01-15T09:28:17;2.15;;;0.98;;
13443;SDS011;6794;59.218;18.218;2024-01-15T09:30:43;0.60;;;0.60;;
13443;SDS011;6794;59.218;18.218;2024-01-15T09:33:10;0.95;;;0.77;;
13443;SDS011;6794;59.218;18.218;2024-01-15T09:35:36;0.80;;;0.57;;
13443;SDS011;6794;59.218;18.218;2024-01-15T09:38:02;0.70;;;0.65;;
13443;SDS011;6794;59.218;18.218;2024-01-15T09:40:29;0.90;;;0.75;;
13443;SDS011;6794;59.218;18.218;2024-01-15T09:42:58;0.82;;;0.55;;
13443;SDS011;6794;59.218;18.218;2024-01-15T09:45:24;2.10;;;0.80;;
13443;SDS011;6794;59.218;18.218;2024-01-15T09:47:51;0.47;;;0.40;;
13443;SDS011;6794;59.218;18.218;2024-01-15T09:50:17;2.30;;;0.68;;
13443;SDS011;6794;59.218;18.218;2024-01-15T09:52:43;1.35;;;0.52;;
13443;SDS011;6794;59.218;18.218;2024-01-15T09:55:10;3.30;;;1.10;;
13443;SDS011;6794;59.218;18.218;2024-01-15T09:57:36;1.85;;;0.80;;
13443;SDS011;6794;59.218;18.218;2024-01-15T10:00:03;2.25;;;0.90;;
13443;SDS011;6794;59.218;18.218;2024-01-15T10:02:30;3.17;;;0.60;;
13443;SDS011;6794;59.218;18.218;2024-01-15T10:04:56;2.05;;;0.40;;
13443;SDS011;6794;59.218;18.218;2024-01-15T10:07:22;0.63;;;0.63;;
13443;SDS011;6794;59.218;18.218;2024-01-15T10:09:48;1.63;;;0.47;;
13443;SDS011;6794;59.218;18.218;2024-01-15T10:12:14;2.13;;;0.73;;
13443;SDS011;6794;59.218;18.218;2024-01-15T10:14:41;0.57;;;0.40;;
13443;SDS011;6794;59.218;18.218;2024-01-15T10:17:14;1.63;;;0.80;;
13443;SDS011;6794;59.218;18.218;2024-01-15T10:19:41;0.73;;;0.63;;
13443;SDS011;6794;59.218;18.218;2024-01-15T10:22:08;1.98;;;0.77;;
13443;SDS011;6794;59.218;18.218;2024-01-15T10:24:37;0.65;;;0.55;;
13443;SDS011;6794;59.218;18.218;2024-01-15T10:27:10;2.87;;;1.00;;
13443;SDS011;6794;59.218;18.218;2024-01-15T10:29:37;0.63;;;0.50;;
13443;SDS011;6794;59.218;18.218;2024-01-15T10:32:06;0.80;;;0.80;;
13443;SDS011;6794;59.218;18.218;2024-01-15T10:34:33;3.20;;;0.95;;
13443;SDS011;6794;59.218;18.218;2024-01-15T10:37:03;1.63;;;0.73;;
13443;SDS011;6794;59.218;18.218;2024-01-15T10:39:29;0.60;;;0.60;;
13443;SDS011;6794;59.218;18.218;2024-01-15T10:41:55;0.73;;;0.70;;
13443;SDS011;6794;59.218;18.218;2024-01-15T10:44:21;1.75;;;0.63;;
13443;SDS011;6794;59.218;18.218;2024-01-15T10:46:47;1.50;;;0.73;;
13443;SDS011;6794;59.218;18.218;2024-01-15T10:49:14;1.38;;;0.63;;
13443;SDS011;6794;59.218;18.218;2024-01-15T10:51:40;1.17;;;0.45;;
13443;SDS011;6794;59.218;18.218;2024-01-15T10:54:08;1.05;;;0.73;;
13443;SDS011;6794;59.218;18.218;2024-01-15T10:56:36;0.50;;;0.50;;
13443;SDS011;6794;59.218;18.218;2024-01-15T10:59:03;2.10;;;0.80;;
13443;SDS011;6794;59.218;18.218;2024-01-15T11:01:30;2.40;;;0.68;;
13443;SDS011;6794;59.218;18.218;2024-01-15T11:03:56;0.70;;;0.40;;
13443;SDS011;6794;59.218;18.218;2024-01-15T11:06:23;0.75;;;0.35;;
13443;SDS011;6794;59.218;18.218;2024-01-15T11:08:50;1.08;;;0.40;;
13443;SDS011;6794;59.218;18.218;2024-01-15T11:11:16;1.02;;;0.60;;
13443;SDS011;6794;59.218;18.218;2024-01-15T11:13:43;1.70;;;0.70;;
13443;SDS011;6794;59.218;18.218;2024-01-15T11:16:10;3.13;;;0.88;;
13443;SDS011;6794;59.218;18.218;2024-01-15T11:18:37;1.67;;;0.57;;
13443;SDS011;6794;59.218;18.218;2024-01-15T11:21:19;0.15;;;0.15;;
13443;SDS011;6794;59.218;18.218;2024-01-15T11:23:55;1.05;;;0.68;;
13443;SDS011;6794;59.218;18.218;2024-01-15T11:26:32;0.95;;;0.50;;
13443;SDS011;6794;59.218;18.218;2024-01-15T11:28:59;1.10;;;0.85;;
13443;SDS011;6794;59.218;18.218;2024-01-15T11:31:27;0.82;;;0.68;;
13443;SDS011;6794;59.218;18.218;2024-01-15T11:33:53;2.08;;;0.50;;
13443;SDS011;6794;59.218;18.218;2024-01-15T11:36:20;0.80;;;0.65;;
13443;SDS011;6794;59.218;18.218;2024-01-15T11:38:46;0.73;;;0.57;;
13443;SDS011;6794;59.218;18.218;2024-01-15T11:41:13;1.15;;;0.38;;
13443;SDS011;6794;59.218;18.218;2024-01-15T11:43:42;1.55;;;0.82;;
13443;SDS011;6794;59.218;18.218;2024-01-15T11:46:11;2.45;;;0.50;;
13443;SDS011;6794;59.218;18.218;2024-01-15T11:48:44;3.13;;;1.33;;
13443;SDS011;6794;59.218;18.218;2024-01-15T11:51:11;3.28;;;1.55;;
13443;SDS011;6794;59.218;18.218;2024-01-15T11:56:09;0.47;;;0.47;;
13443;SDS011;6794;59.218;18.218;2024-01-15T11:58:37;0.88;;;0.80;;
13443;SDS011;6794;59.218;18.218;2024-01-15T12:01:03;4.22;;;1.08;;
13443;SDS011;6794;59.218;18.218;2024-01-15T12:03:31;2.90;;;0.80;;
13443;SDS011;6794;59.218;18.218;2024-01-15T12:05:59;0.68;;;0.50;;
13443;SDS011;6794;59.218;18.218;2024-01-15T12:08:26;3.65;;;0.73;;
13443;SDS011;6794;59.218;18.218;2024-01-15T12:10:52;0.60;;;0.50;;
13443;SDS011;6794;59.218;18.218;2024-01-15T12:13:19;2.78;;;0.57;;
13443;SDS011;6794;59.218;18.218;2024-01-15T12:15:46;1.50;;;0.70;;
13443;SDS011;6794;59.218;18.218;2024-01-15T12:18:13;0.45;;;0.40;;
13443;SDS011;6794;59.218;18.218;2024-01-15T12:20:40;0.45;;;0.45;;
13443;SDS011;6794;59.218;18.218;2024-01-15T12:23:07;2.17;;;0.88;;
13443;SDS011;6794;59.218;18.218;2024-01-15T12:25:35;2.13;;;0.70;;
13443;SDS011;6794;59.218;18.218;2024-01-15T12:28:01;1.90;;;0.90;;
13443;SDS011;6794;59.218;18.218;2024-01-15T12:30:27;1.20;;;0.60;;
13443;SDS011;6794;59.218;18.218;2024-01-15T12:32:54;0.52;;;0.40;;
13443;SDS011;6794;59.218;18.218;2024-01-15T12:35:20;3.85;;;1.00;;
13443;SDS011;6794;59.218;18.218;2024-01-15T12:37:47;1.92;;;0.70;;
13443;SDS011;6794;59.218;18.218;2024-01-15T12:40:13;1.42;;;0.50;;
13443;SDS011;6794;59.218;18.218;2024-01-15T12:42:44;0.57;;;0.50;;
13443;SDS011;6794;59.218;18.218;2024-01-15T12:45:11;1.90;;;0.50;;
13443;SDS011;6794;59.218;18.218;2024-01-15T12:47:41;1.55;;;0.65;;
13443;SDS011;6794;59.218;18.218;2024-01-15T12:50:08;1.98;;;0.55;;
13443;SDS011;6794;59.218;18.218;2024-01-15T12:52:35;1.15;;;0.63;;
13443;SDS011;6794;59.218;18.218;2024-01-15T12:55:03;0.68;;;0.50;;
13443;SDS011;6794;59.218;18.218;2024-01-15T12:57:29;0.40;;;0.40;;
13443;SDS011;6794;59.218;18.218;2024-01-15T12:59:55;0.65;;;0.55;;
13443;SDS011;6794;59.218;18.218;2024-01-15T13:02:21;2.53;;;0.75;;
13443;SDS011;6794;59.218;18.218;2024-01-15T13:04:47;1.23;;;0.73;;
13443;SDS011;6794;59.218;18.218;2024-01-15T13:07:13;2.08;;;0.70;;
13443;SDS011;6794;59.218;18.218;2024-01-15T13:09:39;1.77;;;0.65;;
13443;SDS011;6794;59.218;18.218;2024-01-15T13:12:05;1.27;;;0.50;;
13443;SDS011;6794;59.218;18.218;2024-01-15T13:14:32;0.45;;;0.45;;
13443;SDS011;6794;59.218;18.218;2024-01-15T13:16:58;2.40;;;1.20;;
13443;SDS011;6794;59.218;18.218;2024-01-15T13:19:25;1.08;;;0.80;;
13443;SDS011;6794;59.218;18.218;2024-01-15T13:21:51;0.95;;;0.45;;
13443;SDS011;6794;59.218;18.218;2024-01-15T13:24:18;1.35;;;0.45;;
13443;SDS011;6794;59.218;18.218;2024-01-15T13:26:44;0.57;;;0.45;;
13443;SDS011;6794;59.218;18.218;2024-01-15T13:29:10;1.23;;;0.30;;
13443;SDS011;6794;59.218;18.218;2024-01-15T13:31:36;0.95;;;0.85;;
13443;SDS011;6794;59.218;18.218;2024-01-15T13:34:03;1.40;;;0.75;;
13443;SDS011;6794;59.218;18.218;2024-01-15T13:36:29;1.65;;;0.50;;
13443;SDS011;6794;59.218;18.218;2024-01-15T13:38:55;2.83;;;1.00;;
13443;SDS011;6794;59.218;18.218;2024-01-15T13:41:21;1.17;;;0.50;;
13443;SDS011;6794;59.218;18.218;2024-01-15T13:43:52;1.20;;;0.68;;
13443;SDS011;6794;59.218;18.218;2024-01-15T13:46:18;1.45;;;0.80;;
13443;SDS011;6794;59.218;18.218;2024-01-15T13:48:44;2.15;;;1.02;;
13443;SDS011;6794;59.218;18.218;2024-01-15T13:51:10;1.63;;;0.87;;
13443;SDS011;6794;59.218;18.218;2024-01-15T13:53:40;2.80;;;0.95;;
13443;SDS011;6794;59.218;18.218;2024-01-15T13:56:06;4.72;;;0.90;;
13443;SDS011;6794;59.218;18.218;2024-01-15T13:58:35;1.90;;;0.77;;
13443;SDS011;6794;59.218;18.218;2024-01-15T14:01:01;1.13;;;0.70;;
13443;SDS011;6794;59.218;18.218;2024-01-15T14:03:29;0.93;;;0.88;;
13443;SDS011;6794;59.218;18.218;2024-01-15T14:05:55;5.38;;;0.70;;
13443;SDS011;6794;59.218;18.218;2024-01-15T14:08:21;2.13;;;0.70;;
13443;SDS011;6794;59.218;18.218;2024-01-15T14:10:47;1.83;;;1.00;;
13443;SDS011;6794;59.218;18.218;2024-01-15T14:13:13;0.70;;;0.70;;
13443;SDS011;6794;59.218;18.218;2024-01-15T14:15:39;1.58;;;0.60;;
13443;SDS011;6794;59.218;18.218;2024-01-15T14:18:05;1.10;;;1.00;;
13443;SDS011;6794;59.218;18.218;2024-01-15T14:20:32;1.83;;;0.80;;
13443;SDS011;6794;59.218;18.218;2024-01-15T14:22:58;1.00;;;0.57;;
13443;SDS011;6794;59.218;18.218;2024-01-15T14:25:24;2.33;;;1.00;;
13443;SDS011;6794;59.218;18.218;2024-01-15T14:27:50;1.40;;;1.30;;
13443;SDS011;6794;59.218;18.218;2024-01-15T14:30:16;1.40;;;1.08;;
13443;SDS011;6794;59.218;18.218;2024-01-15T14:32:42;1.48;;;0.70;;
13443;SDS011;6794;59.218;18.218;2024-01-15T14:35:09;2.15;;;1.00;;
13443;SDS011;6794;59.218;18.218;2024-01-15T14:37:36;1.45;;;1.15;;
13443;SDS011;6794;59.218;18.218;2024-01-15T14:40:02;8.55;;;1.75;;
13443;SDS011;6794;59.218;18.218;2024-01-15T14:42:29;2.28;;;1.35;;
13443;SDS011;6794;59.218;18.218;2024-01-15T14:44:55;0.93;;;0.70;;